aviador You're here:

FMCZ Decoded Metar

DZAOUDZI in MAYOTTE ISLAND
Report Time2017-09-23 11:00:00
UTC Time2017-09-23 11:12:31
Flight Rules vfr VFR
Wind260° at 06 kt
W.Decomp.*RWY 34: 1.9 kt HW 5.7 kt LCW
W.Rank260° ranks 21
Current wind is above 260° avg. (5.7)
Visibility9999 m
Phenomena:N/A
Clouds:Few TCU 018 Hf
Broken 056 Hf
Expected CloudBase > 2,400 ft AGL from Temp-Dew spread
Ceiling5,600 ft
Temp28°C (ISA +13)
Dew Point22°C (70% RH)
Heat Index30.7°C
QNH1015 hPa
Density Alt1,804 ft
Elevation23 ft
Report Wrong Elevation
Raw Report
FMCZ 231100Z 26006KT 9999 FEW018TCU BKN056 28/22 Q1015 NOSIG=

Extra information for FMCZ:More info

Metar Taf Metar & Taf Last 4 Metars F.Rules Stats Wind Profile Meteogram Temp Stats Airport Information Weather charts Add Link Nearby VenuesMetar ALERT Operation Metar Decoded Social comments